Time;durP1;ratioP1;P1;durP2;ratioP2;P2;SDS_P1;SDS_P2;PMS_P1;PMS_P2;Temp;Humidity;BMP_temperature;BMP_pressure;BME280_temperature;BME280_humidity;BME280_pressure;Samples;Min_cycle;Max_cycle;Signal;HPM_P1;HPM_P2
2023/06/29 00:01:14;;;;;;;20.92;15.18;;;;;;;;;;21001370;28;20052;-61
2023/06/29 00:11:15;;;;;;;18.00;13.05;;;;;;;;;;21000414;28;20094;-62
2023/06/29 00:21:17;;;;;;;25.08;15.52;;;;;;;;;;21001128;28;20048;-61
2023/06/29 00:31:22;;;;;;;61.28;36.05;;;;;;;;;;21000225;28;20068;-61
2023/06/29 00:41:23;;;;;;;22.10;14.93;;;;;;;;;;20999581;28;20563;-61
2023/06/29 00:51:24;;;;;;;32.63;22.95;;;;;;;;;;20998360;28;20481;-61
2023/06/29 01:01:27;;;;;;;16.88;12.00;;;;;;;;;;20998491;28;20529;-61
2023/06/29 01:11:28;;;;;;;21.77;13.57;;;;;;;;;;20996481;28;20053;-62
2023/06/29 01:21:30;;;;;;;39.40;25.15;;;;;;;;;;20997706;28;20048;-61
2023/06/29 01:31:31;;;;;;;24.30;14.85;;;;;;;;;;20996714;28;20075;-61
2023/06/29 01:41:35;;;;;;;20.20;13.40;;;;;;;;;;20996415;28;20092;-61
2023/06/29 01:51:36;;;;;;;24.08;15.85;;;;;;;;;;20996324;28;20040;-61
2023/06/29 02:01:37;;;;;;;18.23;13.25;;;;;;;;;;21006380;28;20047;-61
2023/06/29 02:11:38;;;;;;;23.25;15.15;;;;;;;;;;21010214;28;20047;-61
2023/06/29 02:21:40;;;;;;;20.13;13.07;;;;;;;;;;21010697;28;20048;-61
2023/06/29 02:31:41;;;;;;;20.73;14.43;;;;;;;;;;21009589;28;20060;-61
2023/06/29 02:41:42;;;;;;;22.17;13.80;;;;;;;;;;21009205;28;20524;-61
2023/06/29 02:51:43;;;;;;;22.90;15.38;;;;;;;;;;21008614;28;20486;-61
2023/06/29 03:01:44;;;;;;;20.00;12.82;;;;;;;;;;21007516;28;20049;-60
2023/06/29 03:11:45;;;;;;;19.92;13.00;;;;;;;;;;21006630;28;20050;-61
2023/06/29 03:21:46;;;;;;;22.75;12.77;;;;;;;;;;21004872;28;20094;-62
2023/06/29 03:31:47;;;;;;;19.48;12.77;;;;;;;;;;21005339;28;20498;-61
2023/06/29 03:41:48;;;;;;;23.42;13.10;;;;;;;;;;21004749;28;20049;-61
2023/06/29 03:51:49;;;;;;;36.08;21.23;;;;;;;;;;21004036;28;20048;-61
2023/06/29 04:01:50;;;;;;;22.00;14.38;;;;;;;;;;21001409;28;20493;-60
2023/06/29 04:11:51;;;;;;;19.30;12.55;;;;;;;;;;21000855;28;20070;-61
2023/06/29 04:21:53;;;;;;;17.45;11.73;;;;;;;;;;20998937;28;20048;-61
2023/06/29 04:31:54;;;;;;;20.30;12.63;;;;;;;;;;21000013;28;20064;-61
2023/06/29 04:42:01;;;;;;;20.65;12.88;;;;;;;;;;20999821;28;20052;-60
2023/06/29 04:52:02;;;;;;;18.75;13.23;;;;;;;;;;20999411;28;20076;-61
2023/06/29 05:02:04;;;;;;;22.20;14.23;;;;;;;;;;20998535;28;20121;-61
2023/06/29 05:12:05;;;;;;;20.98;13.18;;;;;;;;;;20997924;28;20048;-61
2023/06/29 05:22:06;;;;;;;19.30;12.57;;;;;;;;;;20997303;28;20047;-61
2023/06/29 05:32:07;;;;;;;18.60;11.43;;;;;;;;;;20996595;28;20498;-61
2023/06/29 05:42:09;;;;;;;16.92;11.38;;;;;;;;;;20995368;28;20044;-61
2023/06/29 05:52:10;;;;;;;20.88;12.50;;;;;;;;;;20996250;28;20041;-60
2023/06/29 06:02:11;;;;;;;19.35;12.13;;;;;;;;;;20995901;28;20083;-61
2023/06/29 06:12:12;;;;;;;19.98;12.65;;;;;;;;;;20995418;28;20448;-62
2023/06/29 06:22:13;;;;;;;16.55;11.82;;;;;;;;;;20994592;28;20124;-61
2023/06/29 06:32:14;;;;;;;22.48;12.60;;;;;;;;;;20994144;28;20083;-62
2023/06/29 06:42:15;;;;;;;20.55;12.57;;;;;;;;;;20997165;28;20041;-60
2023/06/29 06:52:16;;;;;;;19.08;12.68;;;;;;;;;;21007895;28;20044;-62
2023/06/29 07:02:18;;;;;;;18.63;11.23;;;;;;;;;;21005211;28;20041;-61
2023/06/29 07:12:19;;;;;;;24.08;12.15;;;;;;;;;;21006108;28;20076;-61
2023/06/29 07:22:20;;;;;;;18.50;11.18;;;;;;;;;;21003678;28;20040;-61
2023/06/29 07:32:21;;;;;;;19.65;10.88;;;;;;;;;;21003490;28;20088;-62
2023/06/29 07:42:23;;;;;;;16.98;10.20;;;;;;;;;;21003947;28;20044;-61
2023/06/29 07:52:25;;;;;;;15.43;8.90;;;;;;;;;;21002401;28;20056;-61
2023/06/29 08:02:26;;;;;;;19.77;8.50;;;;;;;;;;21003164;28;20490;-60
2023/06/29 08:12:27;;;;;;;13.20;7.13;;;;;;;;;;21001929;28;20478;-63
2023/06/29 08:22:28;;;;;;;16.20;8.25;;;;;;;;;;21000112;28;20037;-60
2023/06/29 08:32:29;;;;;;;14.30;7.80;;;;;;;;;;20999946;28;20411;-61
2023/06/29 08:42:30;;;;;;;14.18;7.00;;;;;;;;;;20999693;28;20485;-61
2023/06/29 08:52:35;;;;;;;15.38;8.20;;;;;;;;;;20997986;28;20048;-61
2023/06/29 09:02:36;;;;;;;12.00;6.97;;;;;;;;;;20996777;28;20044;-62
2023/06/29 09:12:38;;;;;;;12.10;7.97;;;;;;;;;;20997495;28;20037;-61
2023/06/29 09:22:40;;;;;;;16.98;8.18;;;;;;;;;;20997364;28;20504;-61
2023/06/29 09:32:41;;;;;;;12.00;7.45;;;;;;;;;;20995658;28;20052;-61
2023/06/29 09:42:43;;;;;;;16.90;8.23;;;;;;;;;;20995774;28;20131;-62
2023/06/29 09:52:48;;;;;;;11.63;7.47;;;;;;;;;;20995036;28;20120;-62
2023/06/29 10:02:49;;;;;;;14.13;8.07;;;;;;;;;;20993736;28;20131;-61
2023/06/29 10:12:53;;;;;;;13.55;7.80;;;;;;;;;;20994282;28;20040;-61
2023/06/29 10:22:55;;;;;;;14.02;8.00;;;;;;;;;;21005666;28;20048;-61
2023/06/29 10:32:58;;;;;;;13.20;8.02;;;;;;;;;;21008178;28;20578;-61
2023/06/29 10:42:59;;;;;;;12.65;7.72;;;;;;;;;;21007689;28;20125;-63
2023/06/29 10:53:00;;;;;;;11.30;7.30;;;;;;;;;;21005250;28;20053;-60
2023/06/29 11:03:01;;;;;;;8.68;6.85;;;;;;;;;;21006559;28;20127;-68
2023/06/29 11:13:07;;;;;;;9.73;7.28;;;;;;;;;;21007335;28;20139;-67
2023/06/29 11:23:08;;;;;;;11.70;7.13;;;;;;;;;;21003330;28;20036;-68
2023/06/29 11:33:13;;;;;;;9.95;7.05;;;;;;;;;;21002895;28;20189;-67
2023/06/29 11:43:15;;;;;;;10.75;7.80;;;;;;;;;;21002958;28;20044;-64
2023/06/29 11:53:16;;;;;;;13.05;8.43;;;;;;;;;;21001868;28;20040;-65
2023/06/29 12:03:18;;;;;;;9.82;7.72;;;;;;;;;;21000943;28;20505;-64
2023/06/29 12:13:21;;;;;;;12.65;9.25;;;;;;;;;;20999340;28;20117;-64
2023/06/29 12:23:22;;;;;;;13.27;8.02;;;;;;;;;;21000702;28;20105;-64
2023/06/29 12:33:23;;;;;;;13.25;8.40;;;;;;;;;;20999955;28;20166;-65
2023/06/29 12:43:25;;;;;;;12.57;8.07;;;;;;;;;;20997126;28;20105;-66
2023/06/29 12:53:26;;;;;;;9.73;7.47;;;;;;;;;;20997742;28;20047;-66
2023/06/29 13:03:27;;;;;;;14.75;7.55;;;;;;;;;;20996774;28;20040;-67
2023/06/29 13:13:30;;;;;;;17.45;9.52;;;;;;;;;;20997396;28;20118;-67
2023/06/29 13:23:31;;;;;;;13.43;7.80;;;;;;;;;;20996517;28;20545;-67
2023/06/29 13:33:32;;;;;;;14.40;8.02;;;;;;;;;;20996156;28;20552;-67
2023/06/29 13:43:33;;;;;;;14.32;7.93;;;;;;;;;;20995839;28;20571;-66
2023/06/29 13:53:34;;;;;;;14.90;8.25;;;;;;;;;;21001409;28;20047;-65
2023/06/29 14:03:35;;;;;;;14.40;8.95;;;;;;;;;;21010033;28;20043;-66
2023/06/29 14:13:36;;;;;;;14.93;7.47;;;;;;;;;;21010778;28;20047;-66
2023/06/29 14:23:37;;;;;;;14.32;8.27;;;;;;;;;;21010333;28;20048;-65
2023/06/29 14:33:38;;;;;;;15.98;8.80;;;;;;;;;;21009370;28;20080;-65
2023/06/29 14:43:39;;;;;;;13.85;8.82;;;;;;;;;;21006145;28;20049;-62
2023/06/29 14:53:40;;;;;;;14.73;8.30;;;;;;;;;;21009385;28;20041;-62
2023/06/29 15:03:42;;;;;;;21.45;12.73;;;;;;;;;;21007257;28;20398;-63
2023/06/29 15:13:43;;;;;;;21.50;9.45;;;;;;;;;;21007273;28;20076;-62
2023/06/29 15:23:44;;;;;;;16.58;10.43;;;;;;;;;;21004640;28;20048;-65
2023/06/29 15:33:45;;;;;;;19.90;13.73;;;;;;;;;;21004971;28;20057;-66
2023/06/29 15:43:46;;;;;;;19.17;13.20;;;;;;;;;;21004437;28;20040;-65
2023/06/29 15:53:48;;;;;;;24.35;14.35;;;;;;;;;;21003464;28;20045;-66
2023/06/29 16:03:49;;;;;;;22.20;16.17;;;;;;;;;;21000051;28;20041;-69
2023/06/29 16:13:50;;;;;;;16.95;12.52;;;;;;;;;;20969290;28;20044;-60
2023/06/29 16:23:51;;;;;;;19.13;13.68;;;;;;;;;;20997945;28;20041;-60
2023/06/29 16:33:52;;;;;;;26.83;19.30;;;;;;;;;;20994838;28;20048;-66
2023/06/29 16:43:53;;;;;;;19.83;13.68;;;;;;;;;;20993079;28;20509;-60
2023/06/29 16:53:55;;;;;;;16.58;11.25;;;;;;;;;;20961730;28;20040;-66
2023/06/29 17:03:56;;;;;;;16.85;11.38;;;;;;;;;;20985926;28;20401;-63
2023/06/29 17:13:57;;;;;;;17.98;11.48;;;;;;;;;;20944039;28;20482;-61
2023/06/29 17:24:00;;;;;;;17.45;12.18;;;;;;;;;;20992696;28;20037;-61
2023/06/29 17:34:01;;;;;;;16.08;10.32;;;;;;;;;;20987578;28;20085;-64
2023/06/29 17:44:02;;;;;;;20.55;13.60;;;;;;;;;;20983742;28;20095;-62
2023/06/29 17:54:04;;;;;;;15.75;10.88;;;;;;;;;;20973655;28;20128;-64
2023/06/29 18:04:05;;;;;;;14.55;10.13;;;;;;;;;;20918084;28;20472;-63
2023/06/29 18:14:06;;;;;;;16.30;9.85;;;;;;;;;;20992037;28;20040;-65
2023/06/29 18:24:07;;;;;;;14.75;10.18;;;;;;;;;;20993642;28;20047;-65
2023/06/29 18:34:08;;;;;;;13.50;9.38;;;;;;;;;;20994328;28;20121;-67
2023/06/29 18:44:09;;;;;;;15.23;8.95;;;;;;;;;;21006514;28;20505;-67
2023/06/29 18:54:10;;;;;;;11.43;8.52;;;;;;;;;;21007276;28;20040;-68
2023/06/29 19:04:12;;;;;;;14.57;9.00;;;;;;;;;;21008085;28;20040;-67
2023/06/29 19:14:13;;;;;;;13.75;8.27;;;;;;;;;;21007266;28;20049;-67
2023/06/29 19:24:14;;;;;;;11.85;7.75;;;;;;;;;;21006480;28;20044;-68
2023/06/29 19:34:16;;;;;;;12.63;8.25;;;;;;;;;;21006103;28;20170;-67
2023/06/29 19:44:17;;;;;;;14.43;7.35;;;;;;;;;;21004843;28;20406;-66
2023/06/29 19:54:18;;;;;;;10.45;7.05;;;;;;;;;;21002484;28;20056;-65
2023/06/29 20:04:19;;;;;;;10.85;6.85;;;;;;;;;;21003345;28;20119;-66
2023/06/29 20:14:20;;;;;;;11.23;6.65;;;;;;;;;;21001346;28;20087;-67
2023/06/29 20:24:21;;;;;;;12.32;6.40;;;;;;;;;;21001698;28;20041;-66
2023/06/29 20:34:22;;;;;;;9.45;5.88;;;;;;;;;;21000275;28;20059;-66
2023/06/29 20:44:29;;;;;;;10.27;6.43;;;;;;;;;;20998955;28;20084;-66
2023/06/29 20:54:30;;;;;;;12.18;5.88;;;;;;;;;;20999871;28;20431;-66
2023/06/29 21:04:32;;;;;;;10.23;6.68;;;;;;;;;;20998074;28;20043;-66
2023/06/29 21:14:33;;;;;;;12.57;5.88;;;;;;;;;;20998213;28;20063;-66
2023/06/29 21:24:34;;;;;;;10.45;5.47;;;;;;;;;;20997418;28;20090;-63
2023/06/29 21:34:35;;;;;;;7.90;5.45;;;;;;;;;;20996433;28;20089;-64
2023/06/29 21:44:37;;;;;;;9.45;5.50;;;;;;;;;;20996781;28;20105;-62
2023/06/29 21:54:38;;;;;;;9.60;5.60;;;;;;;;;;20996457;28;20051;-63
2023/06/29 22:04:39;;;;;;;8.20;4.93;;;;;;;;;;20995898;28;20120;-64
2023/06/29 22:14:40;;;;;;;7.85;4.57;;;;;;;;;;21002557;28;20087;-63
2023/06/29 22:24:41;;;;;;;10.27;4.57;;;;;;;;;;21011168;28;20090;-63
2023/06/29 22:34:42;;;;;;;9.13;5.57;;;;;;;;;;21010830;28;20401;-63
2023/06/29 22:44:43;;;;;;;7.38;4.88;;;;;;;;;;21008511;28;20091;-63
2023/06/29 22:54:45;;;;;;;8.43;5.72;;;;;;;;;;21009001;28;20048;-63
2023/06/29 23:04:46;;;;;;;8.68;5.25;;;;;;;;;;21008190;28;20076;-62
2023/06/29 23:14:51;;;;;;;10.43;6.18;;;;;;;;;;21007495;28;20060;-63
2023/06/29 23:24:52;;;;;;;10.00;5.28;;;;;;;;;;21004899;28;20051;-62
2023/06/29 23:34:53;;;;;;;8.27;5.70;;;;;;;;;;21006082;28;20056;-62
2023/06/29 23:44:55;;;;;;;8.55;6.13;;;;;;;;;;21005338;28;20048;-62
2023/06/29 23:54:56;;;;;;;9.73;5.70;;;;;;;;;;21003374;28;20123;-61
